Time;durP1;ratioP1;P1;durP2;ratioP2;P2;SDS_P1;SDS_P2;PMS_P1;PMS_P2;Temp;Humidity;BMP_temperature;BMP_pressure;BME280_temperature;BME280_humidity;BME280_pressure;Samples;Min_cycle;Max_cycle;Signal;HPM_P1;HPM_P2
2023/04/24 00:00:17;;;;;;;0.5;0.4;;;;;;;;;;;;;
2023/04/24 00:02:41;;;;;;;1.5;0.5;;;;;;;;;;;;;
2023/04/24 00:05:09;;;;;;;0.5;0.5;;;;;;;;;;;;;
2023/04/24 00:07:34;;;;;;;0.5;0.5;;;;;;;;;;;;;
2023/04/24 00:09:59;;;;;;;0.6;0.6;;;;;;;;;;;;;
2023/04/24 00:12:24;;;;;;;0.5;0.4;;;;;;;;;;;;;
2023/04/24 00:14:49;;;;;;;0.7;0.5;;;;;;;;;;;;;
2023/04/24 00:17:15;;;;;;;0.6;0.5;;;;;;;;;;;;;
2023/04/24 00:19:41;;;;;;;0.5;0.5;;;;;;;;;;;;;
2023/04/24 00:22:06;;;;;;;0.7;0.7;;;;;;;;;;;;;
2023/04/24 00:24:32;;;;;;;1;0.5;;;;;;;;;;;;;
2023/04/24 00:26:57;;;;;;;0.5;0.4;;;;;;;;;;;;;
2023/04/24 00:29:23;;;;;;;0.7;0.5;;;;;;;;;;;;;
2023/04/24 00:31:48;;;;;;;2;0.6;;;;;;;;;;;;;
2023/04/24 00:34:15;;;;;;;0.6;0.4;;;;;;;;;;;;;
2023/04/24 00:36:40;;;;;;;1.3;0.8;;;;;;;;;;;;;
2023/04/24 00:39:08;;;;;;;0.4;0.4;;;;;;;;;;;;;
2023/04/24 00:41:31;;;;;;;0.5;0.5;;;;;;;;;;;;;
2023/04/24 00:43:56;;;;;;;1.6;1.5;;;;;;;;;;;;;
2023/04/24 00:46:21;;;;;;;0.9;0.9;;;;;;;;;;;;;
2023/04/24 00:48:48;;;;;;;1.4;0.6;;;;;;;;;;;;;
2023/04/24 00:51:13;;;;;;;0.6;0.3;;;;;;;;;;;;;
2023/04/24 00:53:40;;;;;;;0.3;0.3;;;;;;;;;;;;;
2023/04/24 00:56:05;;;;;;;0.7;0.6;;;;;;;;;;;;;
2023/04/24 00:58:31;;;;;;;1.4;0.5;;;;;;;;;;;;;
2023/04/24 01:00:57;;;;;;;0.5;0.4;;;;;;;;;;;;;
2023/04/24 01:03:22;;;;;;;0.4;0.4;;;;;;;;;;;;;
2023/04/24 01:05:53;;;;;;;0.4;0.4;;;;;;;;;;;;;
2023/04/24 01:08:18;;;;;;;0.6;0.4;;;;;;;;;;;;;
2023/04/24 01:10:43;;;;;;;0.6;0.5;;;;;;;;;;;;;
2023/04/24 01:13:09;;;;;;;1;0.6;;;;;;;;;;;;;
2023/04/24 01:15:34;;;;;;;0.5;0.4;;;;;;;;;;;;;
2023/04/24 01:18:00;;;;;;;0.3;0.3;;;;;;;;;;;;;
2023/04/24 01:20:25;;;;;;;0.9;0.4;;;;;;;;;;;;;
2023/04/24 01:22:52;;;;;;;0.9;0.4;;;;;;;;;;;;;
2023/04/24 01:25:17;;;;;;;2.4;1.2;;;;;;;;;;;;;
2023/04/24 01:27:44;;;;;;;1.1;0.6;;;;;;;;;;;;;
2023/04/24 01:30:09;;;;;;;1.6;0.6;;;;;;;;;;;;;
2023/04/24 01:32:34;;;;;;;0.4;0.4;;;;;;;;;;;;;
2023/04/24 01:34:59;;;;;;;1.5;1;;;;;;;;;;;;;
2023/04/24 01:37:26;;;;;;;1.2;1.1;;;;;;;;;;;;;
2023/04/24 01:39:50;;;;;;;1.8;0.6;;;;;;;;;;;;;
2023/04/24 01:42:16;;;;;;;1.1;0.7;;;;;;;;;;;;;
2023/04/24 01:44:41;;;;;;;1.3;0.5;;;;;;;;;;;;;
2023/04/24 01:47:06;;;;;;;1.5;0.6;;;;;;;;;;;;;
2023/04/24 01:49:32;;;;;;;0.4;0.4;;;;;;;;;;;;;
2023/04/24 01:52:00;;;;;;;0.4;0.4;;;;;;;;;;;;;
2023/04/24 01:54:25;;;;;;;0.4;0.4;;;;;;;;;;;;;
2023/04/24 01:56:50;;;;;;;0.8;0.3;;;;;;;;;;;;;
2023/04/24 01:59:15;;;;;;;0.3;0.3;;;;;;;;;;;;;
2023/04/24 02:01:42;;;;;;;1.1;0.4;;;;;;;;;;;;;
2023/04/24 02:04:07;;;;;;;0.7;0.4;;;;;;;;;;;;;
2023/04/24 02:06:32;;;;;;;0.9;0.4;;;;;;;;;;;;;
2023/04/24 02:08:57;;;;;;;0.4;0.4;;;;;;;;;;;;;
2023/04/24 02:11:24;;;;;;;0.5;0.4;;;;;;;;;;;;;
2023/04/24 02:13:50;;;;;;;0.8;0.8;;;;;;;;;;;;;
2023/04/24 02:16:15;;;;;;;1;0.3;;;;;;;;;;;;;
2023/04/24 02:18:40;;;;;;;1.1;0.3;;;;;;;;;;;;;
2023/04/24 02:21:06;;;;;;;0.4;0.4;;;;;;;;;;;;;
2023/04/24 02:23:31;;;;;;;0.6;0.4;;;;;;;;;;;;;
2023/04/24 02:25:57;;;;;;;0.7;0.6;;;;;;;;;;;;;
2023/04/24 02:28:22;;;;;;;0.9;0.6;;;;;;;;;;;;;
2023/04/24 02:30:48;;;;;;;1;0.4;;;;;;;;;;;;;
2023/04/24 02:33:19;;;;;;;0.4;0.4;;;;;;;;;;;;;
2023/04/24 02:35:44;;;;;;;0.7;0.4;;;;;;;;;;;;;
2023/04/24 02:38:10;;;;;;;0.4;0.4;;;;;;;;;;;;;
2023/04/24 02:40:36;;;;;;;0.7;0.4;;;;;;;;;;;;;
2023/04/24 02:43:01;;;;;;;0.8;0.4;;;;;;;;;;;;;
2023/04/24 02:45:29;;;;;;;0.3;0.3;;;;;;;;;;;;;
2023/04/24 02:47:54;;;;;;;0.4;0.4;;;;;;;;;;;;;
2023/04/24 02:50:21;;;;;;;1.2;0.4;;;;;;;;;;;;;
2023/04/24 02:52:46;;;;;;;1.3;0.4;;;;;;;;;;;;;
2023/04/24 02:55:14;;;;;;;0.6;0.4;;;;;;;;;;;;;
2023/04/24 02:57:40;;;;;;;0.5;0.4;;;;;;;;;;;;;
2023/04/24 03:00:07;;;;;;;1.8;0.5;;;;;;;;;;;;;
2023/04/24 03:02:33;;;;;;;0.6;0.5;;;;;;;;;;;;;
2023/04/24 03:04:57;;;;;;;0.3;0.3;;;;;;;;;;;;;
2023/04/24 03:07:25;;;;;;;0.3;0.3;;;;;;;;;;;;;
2023/04/24 03:09:50;;;;;;;1.6;0.5;;;;;;;;;;;;;
2023/04/24 03:12:17;;;;;;;1.5;0.9;;;;;;;;;;;;;
2023/04/24 03:14:40;;;;;;;0.5;0.5;;;;;;;;;;;;;
2023/04/24 03:17:07;;;;;;;0.4;0.4;;;;;;;;;;;;;
2023/04/24 03:19:33;;;;;;;1;0.5;;;;;;;;;;;;;
2023/04/24 03:21:58;;;;;;;0.5;0.4;;;;;;;;;;;;;
2023/04/24 03:24:23;;;;;;;1.1;0.6;;;;;;;;;;;;;
2023/04/24 03:26:50;;;;;;;1.1;0.6;;;;;;;;;;;;;
2023/04/24 03:29:15;;;;;;;1.4;0.6;;;;;;;;;;;;;
2023/04/24 03:31:40;;;;;;;2.1;0.7;;;;;;;;;;;;;
2023/04/24 03:34:05;;;;;;;0.7;0.6;;;;;;;;;;;;;
2023/04/24 03:36:32;;;;;;;1.7;0.6;;;;;;;;;;;;;
2023/04/24 03:38:56;;;;;;;1.8;1.6;;;;;;;;;;;;;
2023/04/24 03:41:24;;;;;;;2.9;2.2;;;;;;;;;;;;;
2023/04/24 03:43:49;;;;;;;2.1;1.6;;;;;;;;;;;;;
2023/04/24 03:46:14;;;;;;;1.5;1.1;;;;;;;;;;;;;
2023/04/24 03:48:39;;;;;;;0.9;0.8;;;;;;;;;;;;;
2023/04/24 03:51:05;;;;;;;0.8;0.6;;;;;;;;;;;;;
2023/04/24 03:53:30;;;;;;;0.9;0.8;;;;;;;;;;;;;
2023/04/24 03:55:56;;;;;;;0.9;0.7;;;;;;;;;;;;;
2023/04/24 03:58:21;;;;;;;2.2;0.6;;;;;;;;;;;;;
2023/04/24 04:02:45;;;;;;;1.4;1.3;;;;;;;9.65;98.15918;929.2108;;;;
2023/04/24 04:05:18;;;;;;;1.2;0.9;;;;;;;9.64;97.36133;929.2752;;;;
2023/04/24 04:07:48;;;;;;;0.9;0.9;;;;;;;9.45;98.76465;929.2999;;;;
2023/04/24 04:10:20;;;;;;;3.9;1.4;;;;;;;9.34;98.43262;929.3163;;;;
2023/04/24 04:12:50;;;;;;;1;1;;;;;;;9.31;99.42871;929.3322;;;;
2023/04/24 04:15:16;;;;;;;0.7;0.6;;;;;;;9.45;98.98145;929.2823;;;;
2023/04/24 04:17:41;;;;;;;1.4;0.6;;;;;;;9.45;97.93555;929.3212;;;;
2023/04/24 04:20:16;;;;;;;0.2;0.2;;;;;;;9.52;96.91113;929.3895;;;;
2023/04/24 04:22:45;;;;;;;1.9;0.3;;;;;;;9.6;96.00879;929.3536;;;;
2023/04/24 04:25:15;;;;;;;0.6;0.3;;;;;;;9.62;96.2959;929.3691;;;;
2023/04/24 04:27:44;;;;;;;0.2;0.2;;;;;;;9.67;94.98633;929.4142;;;;
2023/04/24 04:30:09;;;;;;;0.2;0.2;;;;;;;9.68;95.49121;929.4302;;;;
2023/04/24 04:32:39;;;;;;;0.2;0.2;;;;;;;9.72;95.44238;929.4515;;;;
2023/04/24 04:35:04;;;;;;;0.3;0.2;;;;;;;9.77;95.80566;929.5341;;;;
2023/04/24 04:37:29;;;;;;;0.4;0.4;;;;;;;9.77;95.96484;929.4252;;;;
2023/04/24 04:39:57;;;;;;;0.5;0.3;;;;;;;9.77;96.47852;929.4713;;;;
2023/04/24 04:42:21;;;;;;;0.3;0.3;;;;;;;9.73;95.35352;929.492;;;;
2023/04/24 04:44:50;;;;;;;0.4;0.3;;;;;;;9.75;95.04004;929.4928;;;;
2023/04/24 04:47:42;;;;;;;0.6;0.6;;;;;;;9.71;94.66797;929.4706;;;;
2023/04/24 04:50:12;;;;;;;1.7;1;;;;;;;9.65;94.7998;929.489;;;;
2023/04/24 04:52:37;;;;;;;0.9;0.6;;;;;;;9.72;95.5791;929.5334;;;;
2023/04/24 04:55:06;;;;;;;1.7;0.8;;;;;;;9.79;94.09082;929.5436;;;;
2023/04/24 04:57:31;;;;;;;1.9;1;;;;;;;9.82;93.76563;929.5518;;;;
2023/04/24 04:59:58;;;;;;;1.6;1.1;;;;;;;9.73;93.30371;929.5374;;;;
2023/04/24 05:02:23;;;;;;;2.4;1.1;;;;;;;9.67;93.49316;929.5295;;;;
2023/04/24 05:04:51;;;;;;;1.4;1;;;;;;;9.64;93.58984;929.5693;;;;
2023/04/24 05:07:16;;;;;;;0.8;0.8;;;;;;;9.63;93.00684;929.5327;;;;
2023/04/24 05:09:44;;;;;;;1.5;0.7;;;;;;;9.69;93.55469;929.6368;;;;
2023/04/24 05:12:15;;;;;;;0.9;0.6;;;;;;;9.68;93.41797;929.6344;;;;
2023/04/24 05:14:40;;;;;;;0.4;0.4;;;;;;;9.73;93.48438;929.6256;;;;
2023/04/24 05:17:12;;;;;;;0.5;0.4;;;;;;;9.73;92.7666;929.6502;;;;
2023/04/24 05:19:41;;;;;;;0.5;0.4;;;;;;;9.75;92.95215;929.7178;;;;
2023/04/24 05:22:07;;;;;;;1.3;0.9;;;;;;;9.81;93.30566;929.7408;;;;
2023/04/24 05:24:37;;;;;;;1.4;1.1;;;;;;;9.87;92.44434;929.8323;;;;
2023/04/24 05:27:02;;;;;;;1;1;;;;;;;9.8;92.80273;929.8386;;;;
2023/04/24 05:29:30;;;;;;;0.8;0.6;;;;;;;9.78;93.32324;929.8553;;;;
2023/04/24 05:31:55;;;;;;;0.5;0.5;;;;;;;9.72;92.19434;929.8696;;;;
2023/04/24 05:34:24;;;;;;;1.1;0.8;;;;;;;9.75;91.91504;929.9182;;;;
2023/04/24 05:36:52;;;;;;;2.1;1.4;;;;;;;9.76;92.25;929.887;;;;
2023/04/24 05:39:17;;;;;;;1.4;1.1;;;;;;;9.72;90.41699;929.8934;;;;
2023/04/24 05:41:47;;;;;;;1.2;1.1;;;;;;;9.73;92.78906;929.8538;;;;
2023/04/24 05:44:20;;;;;;;2.3;1.2;;;;;;;9.67;90.51953;929.826;;;;
2023/04/24 05:46:48;;;;;;;2.2;1.2;;;;;;;9.65;91.74609;929.8538;;;;
2023/04/24 05:49:13;;;;;;;2.3;1.5;;;;;;;9.64;91.14063;929.8268;;;;
2023/04/24 05:51:41;;;;;;;0.9;0.9;;;;;;;9.65;91.88281;929.8268;;;;
2023/04/24 05:54:06;;;;;;;1.6;0.8;;;;;;;9.67;92.82324;929.8427;;;;
2023/04/24 05:56:32;;;;;;;2.3;1.1;;;;;;;9.68;92.69922;929.8403;;;;
2023/04/24 05:58:57;;;;;;;1.2;0.6;;;;;;;9.64;91.19727;929.8999;;;;
2023/04/24 06:01:26;;;;;;;1.5;0.8;;;;;;;9.72;91.9209;929.8315;;;;
2023/04/24 06:03:52;;;;;;;2.4;0.7;;;;;;;9.79;91.18457;929.7813;;;;
2023/04/24 06:06:23;;;;;;;2;0.7;;;;;;;9.77;90.71094;929.7988;;;;
2023/04/24 06:08:56;;;;;;;1.2;1;;;;;;;9.65;89.98047;929.7799;;;;
2023/04/24 06:11:21;;;;;;;0.7;0.7;;;;;;;9.55;91.17773;929.8688;;;;
2023/04/24 06:13:48;;;;;;;0.7;0.7;;;;;;;9.5;92.89844;929.8583;;;;
2023/04/24 06:16:21;;;;;;;1.3;0.7;;;;;;;9.4;92.68262;929.9272;;;;
2023/04/24 06:18:50;;;;;;;0.8;0.8;;;;;;;9.42;93.63184;929.9378;;;;
2023/04/24 06:21:19;;;;;;;1.5;0.6;;;;;;;9.48;94.2627;929.9244;;;;
2023/04/24 06:23:46;;;;;;;1.2;0.8;;;;;;;9.47;92.46875;929.9331;;;;
2023/04/24 06:26:14;;;;;;;1.8;1.4;;;;;;;9.52;93.0293;929.9672;;;;
2023/04/24 06:28:39;;;;;;;2.4;1.5;;;;;;;9.6;93.12695;930.0197;;;;
2023/04/24 06:31:07;;;;;;;1.3;1.1;;;;;;;9.76;92.30664;929.8816;;;;
2023/04/24 06:33:32;;;;;;;2.5;0.9;;;;;;;9.76;93.22949;929.8839;;;;
2023/04/24 06:36:03;;;;;;;1.5;1.4;;;;;;;9.74;92.79102;929.8823;;;;
2023/04/24 06:38:27;;;;;;;2;1.4;;;;;;;9.66;94.50781;929.9135;;;;
2023/04/24 06:40:54;;;;;;;1.6;1.5;;;;;;;9.72;94.40527;929.8839;;;;
2023/04/24 06:43:20;;;;;;;1.9;1.2;;;;;;;9.74;94.29492;929.8211;;;;
2023/04/24 06:45:47;;;;;;;1.9;1.1;;;;;;;9.82;93.96875;929.7927;;;;
2023/04/24 06:48:13;;;;;;;0.9;0.7;;;;;;;9.83;92.60547;929.7537;;;;
2023/04/24 06:50:40;;;;;;;2.3;0.9;;;;;;;9.97;91.00586;929.7868;;;;
2023/04/24 06:53:06;;;;;;;2.1;1.2;;;;;;;10.01;90.08984;929.8133;;;;
2023/04/24 06:55:35;;;;;;;3.1;1.2;;;;;;;10.15;90.26758;929.7723;;;;
2023/04/24 06:58:00;;;;;;;0.9;0.9;;;;;;;10.2;89.62695;929.8016;;;;
2023/04/24 07:00:26;;;;;;;0.7;0.6;;;;;;;10.48;90.29004;929.819;;;;
2023/04/24 07:02:51;;;;;;;1.5;0.7;;;;;;;10.53;90.0957;929.6986;;;;
2023/04/24 07:05:19;;;;;;;1.6;0.9;;;;;;;10.54;88.8291;929.7583;;;;
2023/04/24 07:07:44;;;;;;;0.9;0.8;;;;;;;10.61;88.18164;929.677;;;;
2023/04/24 07:10:15;;;;;;;1;0.9;;;;;;;10.69;89.11133;929.7395;;;;
2023/04/24 07:12:44;;;;;;;0.8;0.8;;;;;;;10.44;87.49512;929.801;;;;
2023/04/24 07:15:10;;;;;;;0.6;0.6;;;;;;;10.36;85.84668;929.7729;;;;
2023/04/24 07:17:34;;;;;;;1.4;0.8;;;;;;;10.56;87.49805;929.7176;;;;
2023/04/24 07:20:03;;;;;;;1.1;0.6;;;;;;;10.63;86.35938;929.7685;;;;
2023/04/24 07:22:27;;;;;;;0.9;0.7;;;;;;;10.85;86.95117;929.7486;;;;
2023/04/24 07:24:55;;;;;;;0.6;0.6;;;;;;;10.76;83.83691;929.7974;;;;
2023/04/24 07:27:20;;;;;;;1;0.8;;;;;;;10.53;84.77539;929.7941;;;;
2023/04/24 07:29:47;;;;;;;1.2;1;;;;;;;10.58;85.20898;929.7924;;;;
2023/04/24 07:32:12;;;;;;;1.2;0.9;;;;;;;10.49;84.92676;929.8039;;;;
2023/04/24 07:34:38;;;;;;;1.4;1;;;;;;;10.88;86.02148;929.7563;;;;
2023/04/24 07:37:03;;;;;;;0.9;0.8;;;;;;;11.24;85.57813;929.8056;;;;
2023/04/24 07:39:30;;;;;;;0.9;0.9;;;;;;;11.51;84.20117;929.8182;;;;
2023/04/24 07:41:56;;;;;;;0.9;0.8;;;;;;;11.77;83.63281;929.8267;;;;
2023/04/24 07:44:21;;;;;;;1.5;0.9;;;;;;;11.9;81.24219;929.8589;;;;
2023/04/24 07:46:46;;;;;;;0.7;0.7;;;;;;;11.91;81.91797;929.8397;;;;
2023/04/24 07:49:15;;;;;;;0.8;0.8;;;;;;;12.19;83.23145;929.8235;;;;
2023/04/24 07:51:41;;;;;;;1.4;0.9;;;;;;;11.94;83.00098;929.7947;;;;
2023/04/24 07:54:07;;;;;;;1.2;0.6;;;;;;;11.76;83.25098;929.8269;;;;
2023/04/24 07:56:31;;;;;;;0.6;0.6;;;;;;;11.73;84.02637;929.8439;;;;
2023/04/24 07:59:01;;;;;;;0.6;0.6;;;;;;;12.17;83.60547;929.8613;;;;
2023/04/24 08:01:25;;;;;;;0.7;0.5;;;;;;;12.15;80.19824;929.8798;;;;
2023/04/24 08:03:52;;;;;;;0.4;0.4;;;;;;;12.16;79.31836;929.9747;;;;
2023/04/24 08:06:17;;;;;;;0.8;0.8;;;;;;;12.05;80.11133;929.9686;;;;
2023/04/24 08:08:44;;;;;;;2.9;2.1;;;;;;;12.03;80.37207;930.0613;;;;
2023/04/24 08:11:09;;;;;;;3.1;2.3;;;;;;;11.99;81.7041;930.0894;;;;
2023/04/24 08:13:35;;;;;;;1.6;1;;;;;;;11.78;79.06543;930.1489;;;;
2023/04/24 08:16:01;;;;;;;0.5;0.5;;;;;;;11.68;80.85645;930.1497;;;;
2023/04/24 08:18:29;;;;;;;0.3;0.3;;;;;;;11.88;78.64844;930.2012;;;;
2023/04/24 08:20:54;;;;;;;0.2;0.2;;;;;;;12.01;77.8252;930.2658;;;;
2023/04/24 08:23:20;;;;;;;0.3;0.3;;;;;;;11.84;79.61523;930.2287;;;;
2023/04/24 08:25:45;;;;;;;0.5;0.4;;;;;;;11.84;79.31738;930.2773;;;;
2023/04/24 08:28:19;;;;;;;0.9;0.6;;;;;;;12.07;79.3584;930.2389;;;;
2023/04/24 08:30:38;;;;;;;0.5;0.5;;;;;;;12.01;79.71582;930.2583;;;;
2023/04/24 08:33:07;;;;;;;0.9;0.6;;;;;;;11.97;80.37305;930.2626;;;;
2023/04/24 08:35:32;;;;;;;0.6;0.6;;;;;;;11.94;81.12109;930.243;;;;
2023/04/24 08:37:58;;;;;;;1.2;1;;;;;;;12.23;81.07324;930.2129;;;;
2023/04/24 08:40:23;;;;;;;0.5;0.5;;;;;;;12.41;76.51855;930.1472;;;;
2023/04/24 08:42:54;;;;;;;2.3;0.9;;;;;;;12.36;81.39551;930.1556;;;;
2023/04/24 08:45:25;;;;;;;0.9;0.5;;;;;;;12.17;81.70508;930.1373;;;;
2023/04/24 08:47:51;;;;;;;1.4;0.6;;;;;;;12.28;82.20703;930.1014;;;;
2023/04/24 08:50:21;;;;;;;0.6;0.6;;;;;;;12.25;81.47754;930.2079;;;;
2023/04/24 08:52:53;;;;;;;1.1;0.5;;;;;;;12.2;79.6582;930.2656;;;;
2023/04/24 08:55:21;;;;;;;0.4;0.4;;;;;;;12.03;80.21094;930.2623;;;;
2023/04/24 08:57:48;;;;;;;0.8;0.4;;;;;;;11.93;81.31543;930.2631;;;;
2023/04/24 09:00:15;;;;;;;0.3;0.3;;;;;;;12.11;80.85645;930.2489;;;;
2023/04/24 09:02:40;;;;;;;1.2;1;;;;;;;12.58;80.09375;930.2734;;;;
2023/04/24 09:05:12;;;;;;;1.3;1.2;;;;;;;13.1;78.55957;930.2719;;;;
2023/04/24 09:07:38;;;;;;;0.6;0.4;;;;;;;13.51;75.65527;930.3342;;;;
2023/04/24 09:10:02;;;;;;;0.3;0.3;;;;;;;13.6;70.04785;930.2913;;;;
2023/04/24 09:12:30;;;;;;;0.5;0.4;;;;;;;13.6;72.3252;930.2849;;;;
2023/04/24 09:14:56;;;;;;;0.7;0.6;;;;;;;13.72;74.33594;930.2952;;;;
2023/04/24 09:17:26;;;;;;;0.4;0.4;;;;;;;13.7;74.98633;930.3044;;;;
2023/04/24 09:19:49;;;;;;;0.9;0.4;;;;;;;12.95;73.19434;930.2439;;;;
2023/04/24 09:22:16;;;;;;;0.8;0.5;;;;;;;12.8;74.27051;930.2862;;;;
2023/04/24 09:24:41;;;;;;;0.3;0.3;;;;;;;13.61;74.08691;930.2783;;;;
2023/04/24 09:27:08;;;;;;;0.4;0.4;;;;;;;14.25;70.38477;930.1777;;;;
2023/04/24 09:29:33;;;;;;;0.7;0.4;;;;;;;14.55;62.22852;930.2305;;;;
2023/04/24 09:31:59;;;;;;;0.8;0.3;;;;;;;14.72;63.41504;930.2676;;;;
2023/04/24 09:34:25;;;;;;;0.2;0.2;;;;;;;14.48;62.28613;930.2958;;;;
2023/04/24 09:36:50;;;;;;;0.2;0.2;;;;;;;14.25;61.19336;930.2714;;;;
2023/04/24 09:39:19;;;;;;;0.7;0.4;;;;;;;14.55;65.15332;930.3387;;;;
2023/04/24 09:41:46;;;;;;;0.5;0.3;;;;;;;14.09;65.29199;930.3356;;;;
2023/04/24 09:44:11;;;;;;;1.3;0.3;;;;;;;14.14;63.48242;930.2722;;;;
2023/04/24 09:46:41;;;;;;;0.3;0.3;;;;;;;13.72;63.22461;930.3041;;;;
2023/04/24 09:49:07;;;;;;;0.5;0.5;;;;;;;13.94;65.5127;930.3521;;;;
2023/04/24 09:51:31;;;;;;;0.9;0.6;;;;;;;14.4;65.4668;930.2839;;;;
2023/04/24 09:53:57;;;;;;;1.2;0.5;;;;;;;14.95;62.19238;930.2906;;;;
2023/04/24 09:56:23;;;;;;;0.6;0.6;;;;;;;15.57;59.68164;930.2542;;;;
2023/04/24 09:58:48;;;;;;;0.4;0.4;;;;;;;15.71;60.2207;930.2653;;;;
2023/04/24 10:01:15;;;;;;;0.5;0.4;;;;;;;15.32;56.8418;930.2377;;;;
2023/04/24 10:03:40;;;;;;;0.9;0.5;;;;;;;15.29;59.13574;930.1365;;;;
2023/04/24 10:06:10;;;;;;;0.5;0.5;;;;;;;15.59;60.70215;930.2114;;;;
2023/04/24 10:08:35;;;;;;;0.8;0.5;;;;;;;16.36;57.64844;930.1956;;;;
2023/04/24 10:11:03;;;;;;;0.3;0.3;;;;;;;16.84;53.59863;930.1334;;;;
2023/04/24 10:13:28;;;;;;;0.5;0.5;;;;;;;16.58;57.15723;930.0494;;;;
2023/04/24 10:15:58;;;;;;;2.1;1.2;;;;;;;16.65;58.08008;930.1244;;;;
2023/04/24 10:18:25;;;;;;;0.7;0.5;;;;;;;17.11;55.63867;930.0269;;;;
2023/04/24 10:20:51;;;;;;;0.5;0.5;;;;;;;16.66;59.07715;930.0283;;;;
2023/04/24 10:23:19;;;;;;;0.3;0.3;;;;;;;16.71;55.99219;930.0256;;;;
2023/04/24 10:25:43;;;;;;;1.6;0.4;;;;;;;16.33;51.23438;929.9786;;;;
2023/04/24 10:28:11;;;;;;;0.2;0.2;;;;;;;16.1;47.31055;929.993;;;;
2023/04/24 10:30:37;;;;;;;0.2;0.2;;;;;;;15.6;46.08984;929.9641;;;;
2023/04/24 10:33:02;;;;;;;0.3;0.3;;;;;;;15.26;47.55469;930;;;;
2023/04/24 10:35:27;;;;;;;0.4;0.3;;;;;;;15.01;47.38867;929.8628;;;;
2023/04/24 10:37:52;;;;;;;0.4;0.3;;;;;;;15.49;49.4043;929.9254;;;;
2023/04/24 10:40:23;;;;;;;0.9;0.3;;;;;;;16.07;49.72363;929.9889;;;;
2023/04/24 10:42:51;;;;;;;0.7;0.4;;;;;;;16.09;48.19922;929.9306;;;;
2023/04/24 10:45:17;;;;;;;1.8;0.3;;;;;;;16;47.58789;929.9238;;;;
2023/04/24 10:47:45;;;;;;;0.7;0.4;;;;;;;15.66;50.85645;929.9846;;;;
2023/04/24 10:50:10;;;;;;;0.2;0.2;;;;;;;15.7;47.91406;930.0247;;;;
2023/04/24 10:52:40;;;;;;;0.2;0.2;;;;;;;16.65;50.95898;929.9056;;;;
2023/04/24 10:55:11;;;;;;;0.7;0.5;;;;;;;17.35;45.76367;929.972;;;;
2023/04/24 10:57:36;;;;;;;0.4;0.4;;;;;;;16.96;48.25977;930.0544;;;;
2023/04/24 11:00:06;;;;;;;0.5;0.3;;;;;;;16.38;46.21777;929.9894;;;;
2023/04/24 11:02:33;;;;;;;0.8;0.3;;;;;;;16.39;47.87402;930.0991;;;;
2023/04/24 11:04:58;;;;;;;1;0.5;;;;;;;16.59;48.33594;930.1439;;;;
2023/04/24 11:07:23;;;;;;;0.7;0.4;;;;;;;16.25;49.07324;930.1149;;;;
2023/04/24 11:09:51;;;;;;;1;0.4;;;;;;;16.18;48.4873;930.0649;;;;
2023/04/24 11:12:16;;;;;;;0.4;0.4;;;;;;;16.32;47.20703;930.1002;;;;
2023/04/24 11:14:41;;;;;;;2.6;0.7;;;;;;;17.06;48.37598;930.0944;;;;
2023/04/24 11:17:11;;;;;;;0.5;0.5;;;;;;;16.27;47.74609;930.103;;;;
2023/04/24 11:19:36;;;;;;;0.6;0.4;;;;;;;15.53;50.36816;930.1747;;;;
2023/04/24 11:22:02;;;;;;;0.8;0.3;;;;;;;14.67;51.08789;930.3173;;;;
2023/04/24 11:24:27;;;;;;;0.5;0.3;;;;;;;14.78;55.85059;930.2856;;;;
2023/04/24 11:26:53;;;;;;;0.4;0.4;;;;;;;15.01;56.34082;930.3847;;;;
2023/04/24 11:29:18;;;;;;;1.2;0.6;;;;;;;15.52;50.67871;930.3844;;;;
2023/04/24 11:31:48;;;;;;;1.2;0.4;;;;;;;15.73;47.3623;930.4116;;;;
2023/04/24 11:34:08;;;;;;;0.4;0.4;;;;;;;16.12;47.0918;930.382;;;;
2023/04/24 11:36:37;;;;;;;0.4;0.4;;;;;;;16.48;48.77441;930.3503;;;;
2023/04/24 11:39:02;;;;;;;0.9;0.4;;;;;;;15.29;54.3457;930.4727;;;;
2023/04/24 11:41:27;;;;;;;0.3;0.3;;;;;;;15.11;52.98438;930.5266;;;;
2023/04/24 11:43:52;;;;;;;0.7;0.4;;;;;;;15.15;56.13867;930.5411;;;;
2023/04/24 11:46:17;;;;;;;0.5;0.3;;;;;;;15.27;54.22754;930.2852;;;;
2023/04/24 11:48:44;;;;;;;0.2;0.2;;;;;;;15.07;56.27832;930.3094;;;;
2023/04/24 11:51:11;;;;;;;0.3;0.3;;;;;;;15.3;53.16895;930.4171;;;;
2023/04/24 11:53:39;;;;;;;0.4;0.4;;;;;;;15.49;51.75977;930.4381;;;;
2023/04/24 11:56:09;;;;;;;0.3;0.2;;;;;;;16.24;53.96582;930.5408;;;;
2023/04/24 11:58:34;;;;;;;0.4;0.2;;;;;;;16.87;48.10059;930.5143;;;;
2023/04/24 12:01:01;;;;;;;1;0.3;;;;;;;17.84;48.38086;930.5806;;;;
2023/04/24 12:03:24;;;;;;;0.2;0.2;;;;;;;18.37;46.62598;930.6241;;;;
2023/04/24 12:05:50;;;;;;;1.1;1;;;;;;;16.35;50.02148;930.6522;;;;
2023/04/24 12:08:15;;;;;;;0.3;0.3;;;;;;;16.69;49.48145;930.4755;;;;
2023/04/24 12:10:40;;;;;;;0.8;0.4;;;;;;;17.8;51.04688;930.5808;;;;
2023/04/24 12:13:09;;;;;;;1.4;0.5;;;;;;;18.17;44.17578;930.6116;;;;
2023/04/24 12:15:34;;;;;;;0.6;0.4;;;;;;;17.64;46.53613;930.6917;;;;
2023/04/24 12:18:03;;;;;;;0.9;0.3;;;;;;;17.35;44.83594;930.7798;;;;
2023/04/24 12:20:35;;;;;;;0.8;0.3;;;;;;;15.98;44.02539;930.6124;;;;
2023/04/24 12:23:03;;;;;;;0.3;0.3;;;;;;;16.33;42.70703;930.6278;;;;
2023/04/24 12:25:28;;;;;;;0.9;0.3;;;;;;;16.33;42.30176;930.5442;;;;
2023/04/24 12:27:55;;;;;;;1.1;0.6;;;;;;;16.48;43.05664;930.5126;;;;
2023/04/24 12:30:20;;;;;;;1.2;0.4;;;;;;;16.05;44.65625;930.473;;;;
2023/04/24 12:32:51;;;;;;;0.2;0.2;;;;;;;15.95;48.27734;930.548;;;;
2023/04/24 12:35:21;;;;;;;0.3;0.3;;;;;;;15.97;48.12891;930.8046;;;;
2023/04/24 12:37:49;;;;;;;0.2;0.2;;;;;;;16.58;43.4375;930.7084;;;;
2023/04/24 12:40:14;;;;;;;0.2;0.2;;;;;;;17.19;45.35254;930.7028;;;;
2023/04/24 12:42:40;;;;;;;0.9;0.4;;;;;;;17.52;44.71387;930.6594;;;;
2023/04/24 12:45:13;;;;;;;0.6;0.5;;;;;;;16.4;39.97168;930.6638;;;;
2023/04/24 12:47:43;;;;;;;0.9;0.4;;;;;;;16.63;40.50098;930.5669;;;;
2023/04/24 12:50:08;;;;;;;1;0.6;;;;;;;16.46;42.63867;930.3812;;;;
2023/04/24 12:52:35;;;;;;;0.6;0.4;;;;;;;16.84;45.24707;930.5516;;;;
2023/04/24 12:55:00;;;;;;;0.4;0.4;;;;;;;17.01;40.60547;930.5348;;;;
2023/04/24 12:57:28;;;;;;;0.9;0.4;;;;;;;16.35;40.30273;930.5517;;;;
2023/04/24 12:59:54;;;;;;;1.3;0.6;;;;;;;16.28;42.36621;930.6243;;;;
2023/04/24 13:02:22;;;;;;;1.5;0.9;;;;;;;16.26;41.76367;930.6664;;;;
2023/04/24 13:04:47;;;;;;;1.2;0.5;;;;;;;16.17;40.27344;930.5952;;;;
2023/04/24 13:07:13;;;;;;;0.5;0.5;;;;;;;16.05;41.0957;930.5605;;;;
2023/04/24 13:09:38;;;;;;;1.1;0.5;;;;;;;16.39;41.59082;930.6503;;;;
2023/04/24 13:12:05;;;;;;;1.3;0.8;;;;;;;16.02;40.74512;930.5634;;;;
2023/04/24 13:14:32;;;;;;;0.5;0.5;;;;;;;15.63;41.05566;930.7148;;;;
2023/04/24 13:16:57;;;;;;;0.9;0.5;;;;;;;15.51;40.24902;930.7946;;;;
2023/04/24 13:19:23;;;;;;;1.2;0.5;;;;;;;15.75;41.33203;930.6994;;;;
2023/04/24 13:21:49;;;;;;;0.9;0.5;;;;;;;15.85;39.89746;930.6541;;;;
2023/04/24 13:24:17;;;;;;;1;0.7;;;;;;;15.31;41.67285;930.6646;;;;
2023/04/24 13:26:42;;;;;;;0.5;0.5;;;;;;;15.65;42.08594;930.6517;;;;
2023/04/24 13:29:09;;;;;;;0.9;0.5;;;;;;;15.93;41.29297;930.6914;;;;
2023/04/24 13:31:34;;;;;;;0.6;0.5;;;;;;;16.26;41.05762;930.6262;;;;
2023/04/24 13:34:01;;;;;;;0.7;0.7;;;;;;;16.07;39.91895;930.6241;;;;
2023/04/24 13:36:26;;;;;;;1.7;0.7;;;;;;;16.3;41.11914;930.6149;;;;
2023/04/24 13:38:53;;;;;;;0.7;0.7;;;;;;;15.76;40.6875;930.6461;;;;
2023/04/24 13:41:18;;;;;;;1.3;0.8;;;;;;;15.35;41.44531;930.676;;;;
2023/04/24 13:43:45;;;;;;;0.5;0.5;;;;;;;15.3;40.44727;930.6497;;;;
2023/04/24 13:46:10;;;;;;;0.6;0.6;;;;;;;15.29;40.36523;930.6418;;;;
2023/04/24 13:48:37;;;;;;;0.8;0.7;;;;;;;14.69;43.41113;930.7058;;;;
2023/04/24 13:51:02;;;;;;;2.4;0.7;;;;;;;14.61;43.93359;930.7358;;;;
2023/04/24 13:53:29;;;;;;;0.9;0.5;;;;;;;14.59;42.22559;930.7947;;;;
2023/04/24 13:55:54;;;;;;;0.6;0.6;;;;;;;14.62;44.0957;930.8217;;;;
2023/04/24 13:58:21;;;;;;;0.6;0.6;;;;;;;15.03;45.22168;930.7783;;;;
2023/04/24 14:00:46;;;;;;;2.2;0.9;;;;;;;15.52;43.72461;930.7183;;;;
2023/04/24 14:03:15;;;;;;;0.8;0.5;;;;;;;16.19;42.9707;930.7427;;;;
2023/04/24 14:05:44;;;;;;;1;0.6;;;;;;;16.53;40.36523;930.6792;;;;
2023/04/24 14:08:09;;;;;;;0.8;0.7;;;;;;;16.75;38.01074;930.6213;;;;
2023/04/24 14:10:37;;;;;;;2;0.7;;;;;;;16.47;37.22266;930.6761;;;;
2023/04/24 14:13:02;;;;;;;0.5;0.5;;;;;;;16.8;37.19238;930.6149;;;;
2023/04/24 14:15:33;;;;;;;0.5;0.5;;;;;;;16.95;37.68066;930.6384;;;;
2023/04/24 14:17:59;;;;;;;0.9;0.6;;;;;;;16.83;38.96777;930.665;;;;
2023/04/24 14:20:27;;;;;;;0.9;0.6;;;;;;;16.66;38.43066;930.5967;;;;
2023/04/24 14:22:53;;;;;;;1.1;0.7;;;;;;;16.23;39.60742;930.6207;;;;
2023/04/24 14:25:18;;;;;;;0.7;0.7;;;;;;;15.85;40.49805;930.6469;;;;
2023/04/24 14:27:45;;;;;;;1.6;0.7;;;;;;;15.63;40.77832;930.6852;;;;
2023/04/24 14:30:12;;;;;;;0.7;0.7;;;;;;;15.44;42.10059;930.6863;;;;
2023/04/24 14:32:39;;;;;;;0.8;0.8;;;;;;;15.36;41.00781;930.7093;;;;
2023/04/24 14:35:04;;;;;;;0.8;0.8;;;;;;;15.2;41.08496;930.7099;;;;
2023/04/24 14:37:33;;;;;;;0.9;0.7;;;;;;;14.91;41.87695;930.7067;;;;
2023/04/24 14:39:58;;;;;;;1.1;0.7;;;;;;;15.06;43.31055;930.817;;;;
2023/04/24 14:42:25;;;;;;;0.6;0.6;;;;;;;15.03;42.73145;930.7213;;;;
2023/04/24 14:44:50;;;;;;;1.3;0.7;;;;;;;15.08;45.04297;930.7067;;;;
2023/04/24 14:47:20;;;;;;;0.7;0.7;;;;;;;14.9;43.21289;930.682;;;;
2023/04/24 14:49:43;;;;;;;0.7;0.6;;;;;;;14.93;43.44629;930.7079;;;;
2023/04/24 14:52:08;;;;;;;0.9;0.9;;;;;;;14.85;44.34863;930.7536;;;;
2023/04/24 14:54:35;;;;;;;1.3;0.8;;;;;;;14.44;44.14746;930.7275;;;;
2023/04/24 14:57:01;;;;;;;1.5;0.7;;;;;;;14.49;45.78809;930.8084;;;;
2023/04/24 14:59:31;;;;;;;0.7;0.7;;;;;;;14.12;43.63086;930.9324;;;;
2023/04/24 15:01:57;;;;;;;0.6;0.6;;;;;;;13.82;44.98145;930.9511;;;;
2023/04/24 15:04:21;;;;;;;1.5;0.9;;;;;;;13.67;45.59863;931.0402;;;;
2023/04/24 15:06:49;;;;;;;0.9;0.6;;;;;;;13.63;48.61816;931.0535;;;;
2023/04/24 15:09:17;;;;;;;0.7;0.7;;;;;;;13.68;48.22266;931.0695;;;;
2023/04/24 15:11:42;;;;;;;1;0.8;;;;;;;13.66;48.47363;931.1178;;;;
2023/04/24 15:14:10;;;;;;;1.1;0.9;;;;;;;13.49;49.07422;931.1806;;;;
2023/04/24 15:16:37;;;;;;;1.1;0.9;;;;;;;13.47;51.34668;931.1394;;;;
2023/04/24 15:19:02;;;;;;;2;0.9;;;;;;;13.6;50.9043;931.2023;;;;
2023/04/24 15:21:28;;;;;;;3.1;1.7;;;;;;;13.66;52.58984;931.2955;;;;
2023/04/24 15:23:54;;;;;;;1.7;1.2;;;;;;;13.55;49.86328;931.3078;;;;
2023/04/24 15:26:21;;;;;;;1.4;0.9;;;;;;;13.49;53.04004;931.2415;;;;
2023/04/24 15:28:46;;;;;;;1.9;1;;;;;;;13.7;52.1582;931.178;;;;
2023/04/24 15:31:16;;;;;;;1.7;1.1;;;;;;;13.56;51.69238;931.1525;;;;
2023/04/24 15:33:44;;;;;;;0.9;0.9;;;;;;;13.33;52.73438;931.264;;;;
2023/04/24 15:36:09;;;;;;;1.1;1;;;;;;;13.29;53.72852;931.2509;;;;